sensor_id;sensor_type;location;lat;lon;timestamp;pressure;altitude;pressure_sealevel;temperature;humidity
44297;BME280;51842;47.450;8.654;2023-08-31T00:00:35;95111.47;;;11.92;100.00
44297;BME280;51842;47.450;8.654;2023-08-31T00:03:03;95118.59;;;11.97;100.00
44297;BME280;51842;47.450;8.654;2023-08-31T00:05:29;95116.44;;;11.99;100.00
44297;BME280;51842;47.450;8.654;2023-08-31T00:07:56;95118.28;;;12.03;100.00
44297;BME280;51842;47.450;8.654;2023-08-31T00:10:22;95119.56;;;12.06;100.00
44297;BME280;51842;47.450;8.654;2023-08-31T00:12:49;95114.47;;;12.10;100.00
44297;BME280;51842;47.450;8.654;2023-08-31T00:15:15;95118.16;;;12.14;100.00
44297;BME280;51842;47.450;8.654;2023-08-31T00:17:41;95116.59;;;12.13;100.00
44297;BME280;51842;47.450;8.654;2023-08-31T00:20:08;95118.66;;;12.16;100.00
44297;BME280;51842;47.450;8.654;2023-08-31T00:22:37;95117.03;;;12.20;100.00
44297;BME280;51842;47.450;8.654;2023-08-31T00:25:04;95118.56;;;12.26;100.00
44297;BME280;51842;47.450;8.654;2023-08-31T00:27:34;95111.50;;;12.35;100.00
44297;BME280;51842;47.450;8.654;2023-08-31T00:30:06;95116.47;;;12.42;100.00
44297;BME280;51842;47.450;8.654;2023-08-31T00:32:34;95108.38;;;12.47;100.00
44297;BME280;51842;47.450;8.654;2023-08-31T00:35:00;95117.44;;;12.51;100.00
44297;BME280;51842;47.450;8.654;2023-08-31T00:37:26;95113.66;;;12.52;100.00
44297;BME280;51842;47.450;8.654;2023-08-31T00:39:52;95114.97;;;12.55;100.00
44297;BME280;51842;47.450;8.654;2023-08-31T00:42:18;95110.94;;;12.57;100.00
44297;BME280;51842;47.450;8.654;2023-08-31T00:44:44;95110.94;;;12.57;100.00
44297;BME280;51842;47.450;8.654;2023-08-31T00:47:13;95110.38;;;12.60;100.00
44297;BME280;51842;47.450;8.654;2023-08-31T00:49:40;95114.03;;;12.64;100.00
44297;BME280;51842;47.450;8.654;2023-08-31T00:52:07;95115.63;;;12.65;100.00
44297;BME280;51842;47.450;8.654;2023-08-31T00:54:34;95110.00;;;12.67;100.00
44297;BME280;51842;47.450;8.654;2023-08-31T00:57:00;95113.47;;;12.67;100.00
44297;BME280;51842;47.450;8.654;2023-08-31T00:59:26;95106.53;;;12.66;100.00
44297;BME280;51842;47.450;8.654;2023-08-31T01:02:12;95113.47;;;12.67;100.00
44297;BME280;51842;47.450;8.654;2023-08-31T01:05:07;95104.13;;;12.65;100.00
44297;BME280;51842;47.450;8.654;2023-08-31T01:07:35;95115.91;;;12.64;100.00
44297;BME280;51842;47.450;8.654;2023-08-31T01:13:02;95113.59;;;12.57;100.00
44297;BME280;51842;47.450;8.654;2023-08-31T01:15:32;95112.31;;;12.55;100.00
44297;BME280;51842;47.450;8.654;2023-08-31T01:18:00;95112.88;;;12.52;100.00
44297;BME280;51842;47.450;8.654;2023-08-31T01:20:55;95111.56;;;12.49;100.00
44297;BME280;51842;47.450;8.654;2023-08-31T01:23:46;95103.63;;;12.44;100.00
44297;BME280;51842;47.450;8.654;2023-08-31T01:26:12;95106.84;;;12.41;100.00
44297;BME280;51842;47.450;8.654;2023-08-31T01:28:38;95113.28;;;12.40;100.00
44297;BME280;51842;47.450;8.654;2023-08-31T01:31:04;95120.00;;;12.37;100.00
44297;BME280;51842;47.450;8.654;2023-08-31T01:33:33;95117.63;;;12.36;100.00
44297;BME280;51842;47.450;8.654;2023-08-31T01:36:04;95118.72;;;12.35;100.00
44297;BME280;51842;47.450;8.654;2023-08-31T01:38:36;95115.53;;;12.33;100.00
44297;BME280;51842;47.450;8.654;2023-08-31T01:41:07;95125.13;;;12.34;100.00
44297;BME280;51842;47.450;8.654;2023-08-31T01:43:36;95121.38;;;12.35;100.00
44297;BME280;51842;47.450;8.654;2023-08-31T01:46:03;95116.53;;;12.37;100.00
44297;BME280;51842;47.450;8.654;2023-08-31T01:48:29;95125.34;;;12.37;100.00
44297;BME280;51842;47.450;8.654;2023-08-31T01:50:55;95128.78;;;12.38;100.00
44297;BME280;51842;47.450;8.654;2023-08-31T01:53:21;95134.66;;;12.40;100.00
44297;BME280;51842;47.450;8.654;2023-08-31T01:55:46;95138.63;;;12.42;100.00
44297;BME280;51842;47.450;8.654;2023-08-31T01:58:12;95126.88;;;12.43;100.00
44297;BME280;51842;47.450;8.654;2023-08-31T02:00:38;95132.72;;;12.45;100.00
44297;BME280;51842;47.450;8.654;2023-08-31T02:03:04;95136.97;;;12.46;100.00
44297;BME280;51842;47.450;8.654;2023-08-31T02:05:31;95140.69;;;12.50;100.00
44297;BME280;51842;47.450;8.654;2023-08-31T02:07:57;95142.22;;;12.57;100.00
44297;BME280;51842;47.450;8.654;2023-08-31T02:10:22;95139.97;;;12.64;100.00
44297;BME280;51842;47.450;8.654;2023-08-31T02:12:48;95135.41;;;12.64;100.00
44297;BME280;51842;47.450;8.654;2023-08-31T02:15:14;95139.88;;;12.69;100.00
44297;BME280;51842;47.450;8.654;2023-08-31T02:17:39;95140.13;;;12.72;100.00
44297;BME280;51842;47.450;8.654;2023-08-31T02:20:06;95141.91;;;12.77;100.00
44297;BME280;51842;47.450;8.654;2023-08-31T02:22:34;95148.56;;;12.80;100.00
44297;BME280;51842;47.450;8.654;2023-08-31T02:25:03;95149.09;;;12.82;100.00
44297;BME280;51842;47.450;8.654;2023-08-31T02:27:29;95164.03;;;12.83;100.00
44297;BME280;51842;47.450;8.654;2023-08-31T02:29:55;95158.38;;;12.84;100.00
44297;BME280;51842;47.450;8.654;2023-08-31T02:32:21;95152.75;;;12.86;100.00
44297;BME280;51842;47.450;8.654;2023-08-31T02:34:46;95154.34;;;12.87;100.00
44297;BME280;51842;47.450;8.654;2023-08-31T02:37:12;95154.56;;;12.90;100.00
44297;BME280;51842;47.450;8.654;2023-08-31T02:39:38;95156.16;;;12.91;100.00
44297;BME280;51842;47.450;8.654;2023-08-31T02:42:05;95156.16;;;12.91;100.00
44297;BME280;51842;47.450;8.654;2023-08-31T02:44:32;95151.31;;;12.93;100.00
44297;BME280;51842;47.450;8.654;2023-08-31T02:46:57;95155.06;;;12.92;100.00
44297;BME280;51842;47.450;8.654;2023-08-31T02:49:23;95158.00;;;12.91;100.00
44297;BME280;51842;47.450;8.654;2023-08-31T02:51:49;95152.91;;;12.94;100.00
44297;BME280;51842;47.450;8.654;2023-08-31T02:54:15;95154.75;;;12.94;100.00
44297;BME280;51842;47.450;8.654;2023-08-31T02:56:41;95159.31;;;12.93;100.00
44297;BME280;51842;47.450;8.654;2023-08-31T02:59:07;95164.66;;;12.93;100.00
44297;BME280;51842;47.450;8.654;2023-08-31T03:01:33;95157.44;;;12.94;100.00
44297;BME280;51842;47.450;8.654;2023-08-31T03:03:59;95156.66;;;12.93;100.00
44297;BME280;51842;47.450;8.654;2023-08-31T03:06:26;95158.84;;;12.91;100.00
44297;BME280;51842;47.450;8.654;2023-08-31T03:08:51;95156.66;;;12.93;100.00
44297;BME280;51842;47.450;8.654;2023-08-31T03:11:17;95153.50;;;12.91;100.00
44297;BME280;51842;47.450;8.654;2023-08-31T03:13:43;95154.56;;;12.90;100.00
44297;BME280;51842;47.450;8.654;2023-08-31T03:16:08;95154.56;;;12.90;100.00
44297;BME280;51842;47.450;8.654;2023-08-31T03:18:34;95163.16;;;12.87;100.00
44297;BME280;51842;47.450;8.654;2023-08-31T03:21:00;95160.78;;;12.86;100.00
44297;BME280;51842;47.450;8.654;2023-08-31T03:23:28;95162.34;;;12.87;100.00
44297;BME280;51842;47.450;8.654;2023-08-31T03:25:54;95165.34;;;12.85;100.00
44297;BME280;51842;47.450;8.654;2023-08-31T03:28:21;95176.03;;;12.85;100.00
44297;BME280;51842;47.450;8.654;2023-08-31T03:30:57;95168.00;;;12.85;100.00
44297;BME280;51842;47.450;8.654;2023-08-31T03:33:22;95164.03;;;12.83;100.00
44297;BME280;51842;47.450;8.654;2023-08-31T03:35:49;95162.72;;;12.80;100.00
44297;BME280;51842;47.450;8.654;2023-08-31T03:38:14;95161.63;;;12.81;100.00
44297;BME280;51842;47.450;8.654;2023-08-31T03:40:40;95167.50;;;12.83;100.00
44297;BME280;51842;47.450;8.654;2023-08-31T03:43:06;95158.38;;;12.84;100.00
44297;BME280;51842;47.450;8.654;2023-08-31T03:45:32;95167.72;;;12.87;100.00
44297;BME280;51842;47.450;8.654;2023-08-31T03:47:58;95163.44;;;12.86;100.00
44297;BME280;51842;47.450;8.654;2023-08-31T03:50:24;95172.78;;;12.88;100.00
44297;BME280;51842;47.450;8.654;2023-08-31T03:52:50;95174.34;;;12.89;100.00
44297;BME280;51842;47.450;8.654;2023-08-31T03:55:15;95177.81;;;12.90;100.00
44297;BME280;51842;47.450;8.654;2023-08-31T03:57:41;95173.06;;;12.87;100.00
44297;BME280;51842;47.450;8.654;2023-08-31T04:00:07;95179.72;;;12.89;100.00
44297;BME280;51842;47.450;8.654;2023-08-31T04:02:38;95174.16;;;12.86;100.00
44297;BME280;51842;47.450;8.654;2023-08-31T04:05:04;95189.88;;;12.87;100.00
44297;BME280;51842;47.450;8.654;2023-08-31T04:07:35;95196.00;;;12.88;100.00
44297;BME280;51842;47.450;8.654;2023-08-31T04:10:00;95192.84;;;12.86;100.00
44297;BME280;51842;47.450;8.654;2023-08-31T04:12:26;95196.59;;;12.85;100.00
44297;BME280;51842;47.450;8.654;2023-08-31T04:14:52;95197.41;;;12.85;100.00
44297;BME280;51842;47.450;8.654;2023-08-31T04:17:18;95203.53;;;12.86;100.00
44297;BME280;51842;47.450;8.654;2023-08-31T04:19:43;95199.00;;;12.86;100.00
44297;BME280;51842;47.450;8.654;2023-08-31T04:22:09;95196.59;;;12.85;100.00
44297;BME280;51842;47.450;8.654;2023-08-31T04:24:35;95200.66;;;12.82;100.00
44297;BME280;51842;47.450;8.654;2023-08-31T04:27:00;95203.03;;;12.84;100.00
44297;BME280;51842;47.450;8.654;2023-08-31T04:29:26;95210.25;;;12.83;100.00
44297;BME280;51842;47.450;8.654;2023-08-31T04:31:52;95202.53;;;12.82;100.00
44297;BME280;51842;47.450;8.654;2023-08-31T04:34:18;95212.41;;;12.81;100.00
44297;BME280;51842;47.450;8.654;2023-08-31T04:36:43;95213.81;;;12.79;100.00
44297;BME280;51842;47.450;8.654;2023-08-31T04:39:09;95217.53;;;12.78;100.00
44297;BME280;51842;47.450;8.654;2023-08-31T04:41:35;95226.66;;;12.77;100.00
44297;BME280;51842;47.450;8.654;2023-08-31T04:44:00;95227.75;;;12.76;100.00
44297;BME280;51842;47.450;8.654;2023-08-31T04:46:26;95222.66;;;12.74;100.00
44297;BME280;51842;47.450;8.654;2023-08-31T04:48:52;95223.47;;;12.74;100.00
44297;BME280;51842;47.450;8.654;2023-08-31T04:51:33;95220.28;;;12.72;100.00
44297;BME280;51842;47.450;8.654;2023-08-31T04:56:34;95245.72;;;12.70;100.00
44297;BME280;51842;47.450;8.654;2023-08-31T04:59:00;95245.41;;;12.71;100.00
44297;BME280;51842;47.450;8.654;2023-08-31T05:01:27;95244.91;;;12.69;100.00
44297;BME280;51842;47.450;8.654;2023-08-31T05:03:52;95260.69;;;12.66;100.00
44297;BME280;51842;47.450;8.654;2023-08-31T05:06:18;95257.59;;;12.59;100.00
44297;BME280;51842;47.450;8.654;2023-08-31T05:08:44;95256.84;;;12.53;100.00
44297;BME280;51842;47.450;8.654;2023-08-31T05:11:10;95262.25;;;12.48;100.00
44297;BME280;51842;47.450;8.654;2023-08-31T05:13:35;95259.94;;;12.41;100.00
44297;BME280;51842;47.450;8.654;2023-08-31T05:16:03;95256.53;;;12.31;100.00
44297;BME280;51842;47.450;8.654;2023-08-31T05:18:29;95258.47;;;12.25;100.00
44297;BME280;51842;47.450;8.654;2023-08-31T05:20:55;95260.66;;;12.23;100.00
44297;BME280;51842;47.450;8.654;2023-08-31T05:23:20;95270.28;;;12.19;100.00
44297;BME280;51842;47.450;8.654;2023-08-31T05:25:46;95269.00;;;12.16;100.00
44297;BME280;51842;47.450;8.654;2023-08-31T05:28:12;95269.56;;;12.13;100.00
44297;BME280;51842;47.450;8.654;2023-08-31T05:30:55;95261.31;;;12.10;100.00
44297;BME280;51842;47.450;8.654;2023-08-31T05:33:21;95275.50;;;12.05;100.00
44297;BME280;51842;47.450;8.654;2023-08-31T05:35:52;95281.38;;;12.02;100.00
44297;BME280;51842;47.450;8.654;2023-08-31T05:38:18;95274.69;;;12.04;100.00
44297;BME280;51842;47.450;8.654;2023-08-31T05:40:44;95273.91;;;12.04;100.00
44297;BME280;51842;47.450;8.654;2023-08-31T05:43:12;95278.16;;;12.05;100.00
44297;BME280;51842;47.450;8.654;2023-08-31T05:45:39;95283.22;;;12.07;100.00
44297;BME280;51842;47.450;8.654;2023-08-31T05:48:05;95281.84;;;12.09;100.00
44297;BME280;51842;47.450;8.654;2023-08-31T05:50:31;95282.59;;;12.15;100.00
44297;BME280;51842;47.450;8.654;2023-08-31T05:52:58;95293.25;;;12.20;100.00
44297;BME280;51842;47.450;8.654;2023-08-31T05:55:24;95296.69;;;12.25;100.00
44297;BME280;51842;47.450;8.654;2023-08-31T05:57:49;95294.47;;;12.33;100.00
44297;BME280;51842;47.450;8.654;2023-08-31T06:00:17;95301.84;;;12.41;100.00
44297;BME280;51842;47.450;8.654;2023-08-31T06:02:43;95306.13;;;12.42;100.00
44297;BME280;51842;47.450;8.654;2023-08-31T06:05:12;95310.13;;;12.44;100.00
44297;BME280;51842;47.450;8.654;2023-08-31T06:07:38;95305.22;;;12.52;100.00
44297;BME280;51842;47.450;8.654;2023-08-31T06:10:05;95304.66;;;12.55;100.00
44297;BME280;51842;47.450;8.654;2023-08-31T06:12:31;95315.56;;;12.58;100.00
44297;BME280;51842;47.450;8.654;2023-08-31T06:14:57;95306.47;;;12.59;100.00
44297;BME280;51842;47.450;8.654;2023-08-31T06:17:23;95322.47;;;12.64;100.00
44297;BME280;51842;47.450;8.654;2023-08-31T06:19:49;95328.53;;;12.70;100.00
44297;BME280;51842;47.450;8.654;2023-08-31T06:22:14;95319.66;;;12.74;100.00
44297;BME280;51842;47.450;8.654;2023-08-31T06:24:40;95319.31;;;12.81;100.00
44297;BME280;51842;47.450;8.654;2023-08-31T06:27:07;95323.03;;;12.85;100.00
44297;BME280;51842;47.450;8.654;2023-08-31T06:29:33;95326.16;;;12.92;100.00
44297;BME280;51842;47.450;8.654;2023-08-31T06:31:59;95329.78;;;13.02;100.00
44297;BME280;51842;47.450;8.654;2023-08-31T06:34:25;95335.88;;;13.07;100.00
44297;BME280;51842;47.450;8.654;2023-08-31T06:36:50;95332.63;;;13.10;100.00
44297;BME280;51842;47.450;8.654;2023-08-31T06:39:16;95328.88;;;13.11;100.00
44297;BME280;51842;47.450;8.654;2023-08-31T06:41:42;95337.13;;;13.15;100.00
44297;BME280;51842;47.450;8.654;2023-08-31T06:44:07;95331.19;;;13.18;100.00
44297;BME280;51842;47.450;8.654;2023-08-31T06:46:33;95327.91;;;13.26;100.00
44297;BME280;51842;47.450;8.654;2023-08-31T06:49:06;95341.28;;;13.26;100.00
44297;BME280;51842;47.450;8.654;2023-08-31T06:51:32;95334.00;;;13.32;100.00
44297;BME280;51842;47.450;8.654;2023-08-31T06:53:58;95344.94;;;13.35;100.00
44297;BME280;51842;47.450;8.654;2023-08-31T06:56:35;95350.94;;;13.46;100.00
44297;BME280;51842;47.450;8.654;2023-08-31T06:59:02;95354.03;;;13.53;100.00
44297;BME280;51842;47.450;8.654;2023-08-31T07:01:28;95359.59;;;13.57;100.00
44297;BME280;51842;47.450;8.654;2023-08-31T07:03:55;95358.31;;;13.54;100.00
44297;BME280;51842;47.450;8.654;2023-08-31T07:06:21;95357.97;;;13.61;100.00
44297;BME280;51842;47.450;8.654;2023-08-31T07:08:47;95361.38;;;13.67;100.00
44297;BME280;51842;47.450;8.654;2023-08-31T07:11:14;95358.59;;;13.72;100.00
44297;BME280;51842;47.450;8.654;2023-08-31T07:13:41;95351.03;;;13.79;100.00
44297;BME280;51842;47.450;8.654;2023-08-31T07:16:07;95358.97;;;13.84;100.00
44297;BME280;51842;47.450;8.654;2023-08-31T07:18:33;95360.28;;;13.86;100.00
44297;BME280;51842;47.450;8.654;2023-08-31T07:20:59;95354.84;;;13.92;100.00
44297;BME280;51842;47.450;8.654;2023-08-31T07:23:25;95366.19;;;14.02;100.00
44297;BME280;51842;47.450;8.654;2023-08-31T07:25:50;95367.22;;;14.39;100.00
44297;BME280;51842;47.450;8.654;2023-08-31T07:28:16;95383.47;;;14.62;100.00
44297;BME280;51842;47.450;8.654;2023-08-31T07:30:43;95381.44;;;14.86;100.00
44297;BME280;51842;47.450;8.654;2023-08-31T07:33:09;95392.97;;;15.00;100.00
44297;BME280;51842;47.450;8.654;2023-08-31T07:35:35;95383.44;;;15.22;100.00
44297;BME280;51842;47.450;8.654;2023-08-31T07:38:01;95387.22;;;15.48;100.00
44297;BME280;51842;47.450;8.654;2023-08-31T07:40:27;95388.41;;;15.70;99.11
44297;BME280;51842;47.450;8.654;2023-08-31T07:42:53;95394.13;;;15.91;95.85
44297;BME280;51842;47.450;8.654;2023-08-31T07:45:18;95399.84;;;16.12;93.41
44297;BME280;51842;47.450;8.654;2023-08-31T07:47:44;95392.75;;;16.16;88.19
44297;BME280;51842;47.450;8.654;2023-08-31T07:50:10;95403.38;;;16.21;91.28
44297;BME280;51842;47.450;8.654;2023-08-31T07:52:36;95403.69;;;16.19;90.44
44297;BME280;51842;47.450;8.654;2023-08-31T07:55:03;95412.53;;;16.20;90.13
44297;BME280;51842;47.450;8.654;2023-08-31T07:57:29;95412.25;;;16.22;90.52
44297;BME280;51842;47.450;8.654;2023-08-31T07:59:55;95411.53;;;16.30;90.27
44297;BME280;51842;47.450;8.654;2023-08-31T08:02:21;95413.28;;;16.12;89.31
44297;BME280;51842;47.450;8.654;2023-08-31T08:04:46;95405.91;;;16.04;90.47
44297;BME280;51842;47.450;8.654;2023-08-31T08:07:12;95409.47;;;16.13;88.84
44297;BME280;51842;47.450;8.654;2023-08-31T08:09:38;95413.34;;;16.21;88.08
44297;BME280;51842;47.450;8.654;2023-08-31T08:12:04;95415.53;;;16.41;88.59
44297;BME280;51842;47.450;8.654;2023-08-31T08:14:30;95418.97;;;16.55;87.93
44297;BME280;51842;47.450;8.654;2023-08-31T08:16:56;95427.84;;;16.56;85.87
44297;BME280;51842;47.450;8.654;2023-08-31T08:19:25;95431.84;;;16.67;86.89
44297;BME280;51842;47.450;8.654;2023-08-31T08:21:51;95426.94;;;16.83;86.82
44297;BME280;51842;47.450;8.654;2023-08-31T08:24:17;95433.22;;;16.78;83.86
44297;BME280;51842;47.450;8.654;2023-08-31T08:26:43;95429.44;;;16.79;84.75
44297;BME280;51842;47.450;8.654;2023-08-31T08:29:09;95427.56;;;16.66;81.87
44297;BME280;51842;47.450;8.654;2023-08-31T08:31:35;95436.34;;;16.49;81.68
44297;BME280;51842;47.450;8.654;2023-08-31T08:34:01;95433.72;;;16.58;84.23
44297;BME280;51842;47.450;8.654;2023-08-31T08:36:29;95444.22;;;16.68;82.09
44297;BME280;51842;47.450;8.654;2023-08-31T08:38:55;95446.59;;;16.70;83.41
44297;BME280;51842;47.450;8.654;2023-08-31T08:41:23;95446.72;;;16.87;81.92
44297;BME280;51842;47.450;8.654;2023-08-31T08:43:51;95452.63;;;16.98;82.15
44297;BME280;51842;47.450;8.654;2023-08-31T08:46:17;95453.97;;;17.09;82.22
44297;BME280;51842;47.450;8.654;2023-08-31T08:48:44;95459.88;;;17.20;81.94
44297;BME280;51842;47.450;8.654;2023-08-31T08:51:14;95456.78;;;17.35;78.88
44297;BME280;51842;47.450;8.654;2023-08-31T08:53:43;95462.97;;;17.35;78.44
44297;BME280;51842;47.450;8.654;2023-08-31T08:56:09;95461.38;;;17.34;80.18
44297;BME280;51842;47.450;8.654;2023-08-31T08:58:35;95460.25;;;17.35;75.84
44297;BME280;51842;47.450;8.654;2023-08-31T09:01:02;95459.00;;;17.33;77.53
44297;BME280;51842;47.450;8.654;2023-08-31T09:03:29;95451.44;;;17.44;78.01
44297;BME280;51842;47.450;8.654;2023-08-31T09:05:55;95458.47;;;17.62;76.78
44297;BME280;51842;47.450;8.654;2023-08-31T09:08:28;95461.13;;;17.53;73.27
44297;BME280;51842;47.450;8.654;2023-08-31T09:10:58;95466.56;;;17.62;73.52
44297;BME280;51842;47.450;8.654;2023-08-31T09:13:29;95467.84;;;17.73;71.97
44297;BME280;51842;47.450;8.654;2023-08-31T09:15:55;95462.06;;;17.80;74.17
44297;BME280;51842;47.450;8.654;2023-08-31T09:18:31;95463.31;;;17.83;72.33
44297;BME280;51842;47.450;8.654;2023-08-31T09:20:59;95460.97;;;17.90;73.91
44297;BME280;51842;47.450;8.654;2023-08-31T09:23:26;95464.13;;;17.83;70.08
44297;BME280;51842;47.450;8.654;2023-08-31T09:25:54;95464.75;;;17.89;71.49
44297;BME280;51842;47.450;8.654;2023-08-31T09:28:23;95470.50;;;17.96;71.60
44297;BME280;51842;47.450;8.654;2023-08-31T09:30:50;95470.22;;;18.15;70.79
44297;BME280;51842;47.450;8.654;2023-08-31T09:33:20;95478.47;;;18.27;70.45
44297;BME280;51842;47.450;8.654;2023-08-31T09:35:51;95464.97;;;18.36;70.30
44297;BME280;51842;47.450;8.654;2023-08-31T09:38:17;95471.34;;;18.40;69.24
44297;BME280;51842;47.450;8.654;2023-08-31T09:40:44;95467.06;;;18.65;68.81
44297;BME280;51842;47.450;8.654;2023-08-31T09:43:09;95472.44;;;18.47;70.00
44297;BME280;51842;47.450;8.654;2023-08-31T09:45:36;95468.31;;;18.41;70.35
44297;BME280;51842;47.450;8.654;2023-08-31T09:48:04;95472.94;;;18.49;67.59
44297;BME280;51842;47.450;8.654;2023-08-31T09:50:32;95474.03;;;18.57;68.22
44297;BME280;51842;47.450;8.654;2023-08-31T09:53:03;95470.56;;;18.74;67.80
44297;BME280;51842;47.450;8.654;2023-08-31T09:55:31;95467.34;;;18.89;66.42
44297;BME280;51842;47.450;8.654;2023-08-31T09:58:00;95466.84;;;19.05;67.38
44297;BME280;51842;47.450;8.654;2023-08-31T10:00:30;95460.97;;;19.11;64.56
44297;BME280;51842;47.450;8.654;2023-08-31T10:03:01;95471.31;;;19.09;66.49
44297;BME280;51842;47.450;8.654;2023-08-31T10:05:28;95466.19;;;19.25;66.41
44297;BME280;51842;47.450;8.654;2023-08-31T10:07:54;95462.03;;;19.28;62.57
44297;BME280;51842;47.450;8.654;2023-08-31T10:10:21;95463.25;;;19.39;61.23
44297;BME280;51842;47.450;8.654;2023-08-31T10:12:51;95468.97;;;19.46;62.89
44297;BME280;51842;47.450;8.654;2023-08-31T10:15:20;95457.81;;;19.56;62.85
44297;BME280;51842;47.450;8.654;2023-08-31T10:17:47;95463.66;;;19.58;62.35
44297;BME280;51842;47.450;8.654;2023-08-31T10:20:16;95463.22;;;19.56;61.97
44297;BME280;51842;47.450;8.654;2023-08-31T10:22:44;95461.22;;;19.36;63.15
44297;BME280;51842;47.450;8.654;2023-08-31T10:25:10;95470.44;;;19.35;65.13
44297;BME280;51842;47.450;8.654;2023-08-31T10:27:43;95464.41;;;19.29;62.76
44297;BME280;51842;47.450;8.654;2023-08-31T10:35:49;95464.19;;;18.96;64.41
44297;BME280;51842;47.450;8.654;2023-08-31T10:40:41;95465.00;;;18.62;65.76
44297;BME280;51842;47.450;8.654;2023-08-31T10:43:16;95464.34;;;18.56;65.22
44297;BME280;51842;47.450;8.654;2023-08-31T10:45:46;95469.25;;;18.54;66.67
44297;BME280;51842;47.450;8.654;2023-08-31T10:48:13;95458.31;;;18.50;64.40
44297;BME280;51842;47.450;8.654;2023-08-31T10:50:43;95451.81;;;18.60;65.73
44297;BME280;51842;47.450;8.654;2023-08-31T10:53:10;95451.03;;;18.60;63.04
44297;BME280;51842;47.450;8.654;2023-08-31T10:55:55;95460.84;;;18.64;66.54
44297;BME280;51842;47.450;8.654;2023-08-31T10:58:21;95467.22;;;18.68;65.69
44297;BME280;51842;47.450;8.654;2023-08-31T11:00:56;95460.09;;;18.72;65.26
44297;BME280;51842;47.450;8.654;2023-08-31T11:03:22;95458.81;;;18.79;65.10
44297;BME280;51842;47.450;8.654;2023-08-31T11:05:54;95458.94;;;19.00;64.74
44297;BME280;51842;47.450;8.654;2023-08-31T11:08:26;95459.19;;;19.24;62.65
44297;BME280;51842;47.450;8.654;2023-08-31T11:10:53;95458.34;;;19.41;62.14
44297;BME280;51842;47.450;8.654;2023-08-31T11:13:19;95454.44;;;19.59;63.19
44297;BME280;51842;47.450;8.654;2023-08-31T11:15:46;95446.94;;;19.74;62.29
44297;BME280;51842;47.450;8.654;2023-08-31T11:18:13;95456.34;;;19.97;60.74
44297;BME280;51842;47.450;8.654;2023-08-31T11:20:42;95447.19;;;20.10;60.53
44297;BME280;51842;47.450;8.654;2023-08-31T11:23:08;95452.56;;;20.19;57.16
44297;BME280;51842;47.450;8.654;2023-08-31T11:25:34;95445.78;;;20.34;57.58
44297;BME280;51842;47.450;8.654;2023-08-31T11:28:07;95443.25;;;20.50;58.24
44297;BME280;51842;47.450;8.654;2023-08-31T11:30:37;95436.94;;;20.67;57.15
44297;BME280;51842;47.450;8.654;2023-08-31T11:33:05;95438.63;;;20.71;56.07
44297;BME280;51842;47.450;8.654;2023-08-31T11:35:38;95438.44;;;20.76;56.58
44297;BME280;51842;47.450;8.654;2023-08-31T11:38:06;95440.09;;;20.69;55.61
44297;BME280;51842;47.450;8.654;2023-08-31T11:40:33;95445.28;;;20.74;56.94
44297;BME280;51842;47.450;8.654;2023-08-31T11:42:59;95444.50;;;20.73;55.35
44297;BME280;51842;47.450;8.654;2023-08-31T11:45:30;95444.63;;;20.77;54.61
44297;BME280;51842;47.450;8.654;2023-08-31T11:47:57;95437.50;;;20.72;55.37
44297;BME280;51842;47.450;8.654;2023-08-31T11:50:24;95442.59;;;20.74;53.52
44297;BME280;51842;47.450;8.654;2023-08-31T11:52:51;95444.34;;;20.91;54.01
44297;BME280;51842;47.450;8.654;2023-08-31T11:55:19;95442.69;;;21.11;54.99
44297;BME280;51842;47.450;8.654;2023-08-31T11:57:54;95453.78;;;21.30;54.21
44297;BME280;51842;47.450;8.654;2023-08-31T12:00:21;95446.63;;;21.59;52.56
44297;BME280;51842;47.450;8.654;2023-08-31T12:02:58;95448.00;;;21.65;54.82
44297;BME280;51842;47.450;8.654;2023-08-31T12:05:24;95446.22;;;21.69;51.34
44297;BME280;51842;47.450;8.654;2023-08-31T12:07:50;95454.78;;;21.83;49.85
44297;BME280;51842;47.450;8.654;2023-08-31T12:10:18;95446.63;;;21.71;48.80
44297;BME280;51842;47.450;8.654;2023-08-31T12:12:44;95449.22;;;22.04;50.22
44297;BME280;51842;47.450;8.654;2023-08-31T12:15:11;95448.66;;;22.23;51.36
44297;BME280;51842;47.450;8.654;2023-08-31T12:17:38;95452.50;;;22.10;50.34
44297;BME280;51842;47.450;8.654;2023-08-31T12:20:09;95445.84;;;21.95;47.87
44297;BME280;51842;47.450;8.654;2023-08-31T12:22:35;95450.81;;;21.93;50.71
44297;BME280;51842;47.450;8.654;2023-08-31T12:25:01;95455.34;;;22.01;50.43
44297;BME280;51842;47.450;8.654;2023-08-31T12:27:26;95454.75;;;22.08;48.42
44297;BME280;51842;47.450;8.654;2023-08-31T12:29:53;95447.41;;;21.96;49.07
44297;BME280;51842;47.450;8.654;2023-08-31T12:32:18;95446.03;;;22.14;51.30
44297;BME280;51842;47.450;8.654;2023-08-31T12:34:44;95449.00;;;22.09;47.39
44297;BME280;51842;47.450;8.654;2023-08-31T12:37:10;95448.22;;;22.21;49.66
44297;BME280;51842;47.450;8.654;2023-08-31T12:39:36;95441.56;;;22.06;51.38
44297;BME280;51842;47.450;8.654;2023-08-31T12:42:03;95441.91;;;21.68;50.49
44297;BME280;51842;47.450;8.654;2023-08-31T12:44:30;95431.97;;;21.72;50.83
44297;BME280;51842;47.450;8.654;2023-08-31T12:46:56;95436.94;;;21.58;51.39
44297;BME280;51842;47.450;8.654;2023-08-31T12:49:22;95435.59;;;21.76;50.83
44297;BME280;51842;47.450;8.654;2023-08-31T12:51:48;95439.44;;;21.63;53.20
44297;BME280;51842;47.450;8.654;2023-08-31T12:54:16;95431.19;;;21.59;48.83
44297;BME280;51842;47.450;8.654;2023-08-31T12:56:42;95436.44;;;21.31;51.66
44297;BME280;51842;47.450;8.654;2023-08-31T12:59:08;95441.94;;;21.22;51.63
44297;BME280;51842;47.450;8.654;2023-08-31T13:01:34;95437.94;;;21.41;51.96
44297;BME280;51842;47.450;8.654;2023-08-31T13:03:59;95438.16;;;21.36;49.80
44297;BME280;51842;47.450;8.654;2023-08-31T13:06:25;95434.94;;;21.34;50.27
44297;BME280;51842;47.450;8.654;2023-08-31T13:08:52;95436.34;;;21.52;51.86